Time;durP1;ratioP1;P1;durP2;ratioP2;P2;SDS_P1;SDS_P2;PMS_P1;PMS_P2;Temp;Humidity;BMP_temperature;BMP_pressure;BME280_temperature;BME280_humidity;BME280_pressure;Samples;Min_cycle;Max_cycle;Signal;HPM_P1;HPM_P2
2021/07/19 00:01:35;;;;;;;10.10;5.77;;;17.90;99.90;;;19.06;100.00;98576.75;5044601;28;20461;-80
2021/07/19 00:04:05;;;;;;;14.40;5.17;;;17.90;99.90;;;19.06;100.00;98574.09;5044259;28;20465;-80
2021/07/19 00:06:34;;;;;;;9.03;5.33;;;17.90;99.90;;;19.05;100.00;98573.28;5043880;28;21078;-79
2021/07/19 00:09:04;;;;;;;8.90;6.20;;;18.00;99.90;;;19.04;100.00;98576.16;5041613;28;20450;-79
2021/07/19 00:11:37;;;;;;;10.73;6.30;;;17.90;99.90;;;19.04;100.00;98570.88;5044985;28;20555;-79
2021/07/19 00:14:06;;;;;;;9.27;5.60;;;17.90;99.90;;;18.92;100.00;98573.50;5048734;28;20960;-79
2021/07/19 00:16:37;;;;;;;7.00;5.37;;;17.80;99.90;;;18.90;100.00;98569.47;5037989;28;20462;-80
2021/07/19 00:19:07;;;;;;;9.80;6.10;;;17.80;99.90;;;18.87;100.00;98577.88;5048665;28;20590;-80
2021/07/19 00:21:36;;;;;;;10.53;4.90;;;17.70;99.90;;;18.93;100.00;98574.28;5046313;28;20916;-79
2021/07/19 00:24:07;;;;;;;8.20;5.20;;;17.80;99.90;;;18.86;100.00;98574.41;5045787;28;20493;-79
2021/07/19 00:26:37;;;;;;;7.97;5.33;;;17.70;99.90;;;18.77;100.00;98577.59;5048489;28;20551;-79
2021/07/19 00:29:05;;;;;;;15.70;6.10;;;17.60;99.90;;;18.75;100.00;98577.81;5046049;28;20461;-79
2021/07/19 00:31:36;;;;;;;9.73;5.53;;;17.70;99.90;;;18.66;100.00;98581.03;5039762;28;20531;-79
2021/07/19 00:34:06;;;;;;;13.73;6.50;;;17.50;99.90;;;18.69;100.00;98577.91;5044207;28;20829;-79
2021/07/19 00:36:36;;;;;;;10.60;5.80;;;17.60;99.90;;;18.62;100.00;98575.38;5045933;28;20481;-80
2021/07/19 00:39:11;;;;;;;8.90;5.53;;;17.50;99.90;;;18.56;100.00;98569.13;5046332;28;20827;-80
2021/07/19 00:41:41;;;;;;;9.47;5.63;;;17.40;99.90;;;18.53;100.00;98580.16;5042328;28;20458;-79
2021/07/19 00:44:11;;;;;;;11.13;5.77;;;17.40;99.90;;;18.53;100.00;98566.91;5046260;28;20962;-79
2021/07/19 00:46:41;;;;;;;6.60;5.13;;;17.40;99.90;;;18.52;100.00;98573.25;5039316;28;20532;-79
2021/07/19 00:49:12;;;;;;;13.83;6.80;;;17.40;99.90;;;18.44;100.00;98573.53;5044200;28;20458;-80
2021/07/19 00:51:42;;;;;;;11.60;5.93;;;17.30;99.90;;;18.46;100.00;98568.84;5040704;28;20465;-80
2021/07/19 00:54:14;;;;;;;8.03;5.30;;;17.40;99.90;;;18.40;100.00;98571.56;5043994;28;20465;-80
2021/07/19 00:56:45;;;;;;;11.70;5.83;;;17.30;99.90;;;18.34;100.00;98569.81;5044345;28;20465;-80
2021/07/19 00:59:16;;;;;;;11.70;5.63;;;17.20;99.90;;;18.41;100.00;98567.88;5047938;28;20457;-80
2021/07/19 01:01:51;;;;;;;8.77;5.70;;;17.30;99.90;;;18.50;100.00;98571.84;5047268;28;20477;-80
2021/07/19 01:04:23;;;;;;;5.80;5.20;;;17.50;99.90;;;18.48;100.00;98572.06;5045247;28;20550;-80
2021/07/19 01:06:57;;;;;;;10.70;5.03;;;17.40;99.90;;;18.43;100.00;98568.47;5036862;28;20773;-80
2021/07/19 01:09:28;;;;;;;9.87;5.50;;;17.40;99.90;;;18.37;100.00;98570.16;5042056;28;20518;-80
2021/07/19 01:11:58;;;;;;;11.73;6.57;;;17.30;99.90;;;18.46;100.00;98574.13;5046614;28;20958;-79
2021/07/19 01:14:28;;;;;;;10.67;5.50;;;17.50;99.90;;;18.45;100.00;98572.50;5048392;28;20951;-80
2021/07/19 01:16:58;;;;;;;8.60;5.90;;;17.50;99.90;;;18.44;100.00;98576.19;5044261;28;20553;-80
2021/07/19 01:19:35;;;;;;;8.27;6.17;;;17.40;99.90;;;18.34;100.00;98567.16;5042698;28;20464;-79
2021/07/19 01:22:45;;;;;;;6.07;5.20;;;17.30;99.90;;;18.33;100.00;98568.19;5037134;28;20481;-80
2021/07/19 01:25:43;;;;;;;17.40;5.90;;;17.20;99.90;;;18.22;100.00;98572.41;5047264;28;20840;-80
2021/07/19 01:28:43;;;;;;;13.70;5.50;;;17.10;99.90;;;18.15;100.00;98573.53;5045287;28;20990;-80
2021/07/19 01:31:16;;;;;;;10.93;5.97;;;17.00;99.90;;;18.13;100.00;98567.63;5040200;28;20457;-79
2021/07/19 01:33:51;;;;;;;6.97;5.47;;;17.00;99.90;;;18.08;100.00;98566.44;5044582;28;20476;-80
2021/07/19 01:36:28;;;;;;;13.17;6.10;;;17.00;99.90;;;18.00;100.00;98573.91;5044519;28;20528;-80
2021/07/19 01:39:00;;;;;;;11.67;5.43;;;16.90;99.90;;;18.12;100.00;98561.50;5045721;28;20464;-80
2021/07/19 01:41:31;;;;;;;7.47;5.63;;;17.00;99.90;;;18.08;100.00;98565.66;5040826;28;20963;-80
2021/07/19 01:44:05;;;;;;;8.37;5.57;;;17.00;99.90;;;18.14;100.00;98564.75;5041646;28;20462;-80
2021/07/19 01:46:37;;;;;;;7.23;5.40;;;17.10;99.90;;;18.10;100.00;98561.75;5042710;28;20516;-79
2021/07/19 01:49:08;;;;;;;7.60;5.77;;;17.10;99.90;;;18.05;100.00;98568.72;5043379;28;20454;-79
2021/07/19 01:51:39;;;;;;;5.97;5.37;;;16.90;99.90;;;18.02;100.00;98564.69;5040646;28;20465;-79
2021/07/19 01:54:10;;;;;;;10.33;5.30;;;16.90;99.90;;;17.85;100.00;98562.84;5048263;28;20523;-79
2021/07/19 01:56:40;;;;;;;10.30;5.70;;;16.80;99.90;;;17.80;100.00;98560.91;5046612;28;20576;-79
2021/07/19 01:59:12;;;;;;;6.20;5.30;;;16.80;99.90;;;17.89;100.00;98556.91;5044718;28;21230;-80
2021/07/19 02:01:42;;;;;;;7.17;5.30;;;16.90;99.90;;;17.91;100.00;98564.66;5042898;28;20493;-80
2021/07/19 02:04:12;;;;;;;6.83;5.27;;;17.00;99.90;;;17.85;100.00;98550.44;5041753;28;20519;-79
2021/07/19 02:06:43;;;;;;;10.90;5.70;;;16.80;99.90;;;17.78;100.00;98555.00;5043497;28;20558;-80
2021/07/19 02:09:17;;;;;;;9.33;5.63;;;16.80;99.90;;;17.74;100.00;98550.34;5045513;28;20461;-80
2021/07/19 02:11:47;;;;;;;9.43;5.73;;;16.70;99.90;;;17.67;100.00;98547.00;5042579;28;20512;-79
2021/07/19 02:14:20;;;;;;;9.63;6.17;;;16.50;99.90;;;17.66;100.00;98540.91;5041761;28;20464;-79
2021/07/19 02:16:54;;;;;;;11.90;6.00;;;16.50;99.90;;;17.70;100.00;98547.34;5041819;28;20962;-80
2021/07/19 02:19:26;;;;;;;10.93;5.30;;;16.60;99.90;;;17.68;100.00;98548.59;5045185;28;20986;-80
2021/07/19 02:21:56;;;;;;;19.93;6.07;;;16.60;99.90;;;17.66;100.00;98550.66;5044472;28;20473;-79
2021/07/19 02:24:29;;;;;;;8.97;5.50;;;16.50;99.90;;;17.58;100.00;98546.47;5044960;28;20465;-80
2021/07/19 02:26:58;;;;;;;8.23;5.17;;;16.50;99.90;;;17.62;100.00;98550.28;5038874;28;20584;-80
2021/07/19 02:29:31;;;;;;;11.23;6.60;;;16.50;99.90;;;17.62;100.00;98550.28;5042419;28;20948;-79
2021/07/19 02:32:03;;;;;;;8.60;5.80;;;16.50;99.90;;;17.51;100.00;98551.78;5036396;28;20453;-80
2021/07/19 02:34:32;;;;;;;11.47;5.43;;;16.40;99.90;;;17.58;100.00;98557.84;5042535;28;20460;-80
2021/07/19 02:37:01;;;;;;;8.40;5.73;;;16.50;99.90;;;17.50;100.00;98552.81;5043264;28;20489;-80
2021/07/19 02:39:31;;;;;;;6.93;5.37;;;16.40;99.90;;;17.49;100.00;98556.47;5042547;28;20465;-79
2021/07/19 02:42:02;;;;;;;9.83;6.40;;;16.30;99.90;;;17.44;100.00;98556.34;5042899;28;20465;-80
2021/07/19 02:44:34;;;;;;;8.00;5.40;;;16.30;99.90;;;17.45;100.00;98560.59;5044212;28;20491;-80
2021/07/19 02:47:06;;;;;;;7.17;5.93;;;16.30;99.90;;;17.31;100.00;98553.81;5045172;28;20508;-79
2021/07/19 02:49:39;;;;;;;12.10;5.90;;;16.20;99.90;;;17.32;100.00;98558.06;5037936;28;20465;-79
2021/07/19 02:52:10;;;;;;;9.27;5.90;;;16.10;99.90;;;17.40;100.00;98562.28;5045284;28;20460;-79
2021/07/19 02:54:42;;;;;;;10.60;5.43;;;16.30;99.90;;;17.29;100.00;98561.16;5045809;28;20441;-79
2021/07/19 02:57:13;;;;;;;10.90;6.37;;;16.10;99.90;;;17.27;100.00;98552.63;5042088;28;20460;-79
2021/07/19 02:59:44;;;;;;;18.47;5.70;;;16.20;99.90;;;17.25;100.00;98554.66;5047457;28;20445;-80
2021/07/19 03:02:17;;;;;;;9.13;6.00;;;16.20;99.90;;;17.18;100.00;98559.19;5038399;28;20551;-79
2021/07/19 03:04:56;;;;;;;7.30;5.80;;;16.10;99.90;;;17.19;100.00;98552.09;5043091;28;20885;-80
2021/07/19 03:07:30;;;;;;;6.43;5.40;;;16.10;99.90;;;17.19;100.00;98546.81;5044310;28;21007;-79
2021/07/19 03:10:05;;;;;;;9.13;5.77;;;16.10;99.90;;;17.16;100.00;98555.16;5043122;28;20903;-79
2021/07/19 03:12:41;;;;;;;10.33;5.20;;;16.10;99.90;;;17.02;100.00;98557.09;5043126;28;20875;-80
2021/07/19 03:15:15;;;;;;;28.67;6.83;;;15.90;99.90;;;17.00;100.00;98541.50;5044992;28;20448;-79
2021/07/19 03:17:49;;;;;;;13.73;6.07;;;15.90;99.90;;;17.05;100.00;98543.47;5043022;28;21023;-80
2021/07/19 03:20:20;;;;;;;13.47;5.07;;;15.90;99.90;;;17.07;100.00;98544.06;5046750;28;20965;-80
2021/07/19 03:22:53;;;;;;;10.23;5.40;;;16.00;99.90;;;17.02;100.00;98550.00;5049650;28;20460;-80
2021/07/19 03:25:28;;;;;;;7.30;5.30;;;16.00;99.90;;;17.00;100.00;98559.16;5039413;28;23146;-80
2021/07/19 03:27:59;;;;;;;18.13;5.83;;;16.00;99.90;;;16.97;100.00;98555.09;5047830;28;20505;-80
2021/07/19 03:30:31;;;;;;;10.83;5.77;;;16.00;99.90;;;16.92;100.00;98556.78;5044830;28;20479;-79
2021/07/19 03:33:01;;;;;;;8.67;5.60;;;15.90;99.90;;;16.84;100.00;98551.75;5045334;28;20461;-80
2021/07/19 03:35:32;;;;;;;9.17;5.40;;;15.70;99.90;;;16.85;100.00;98550.75;5044826;28;20479;-79
2021/07/19 03:38:03;;;;;;;8.60;4.93;;;15.70;99.90;;;16.80;100.00;98550.59;5037472;28;20466;-80
2021/07/19 03:40:34;;;;;;;14.70;5.20;;;15.70;99.90;;;16.76;100.00;98552.03;5047573;28;20467;-81
2021/07/19 03:43:06;;;;;;;12.73;8.77;;;15.60;99.90;;;16.80;100.00;98555.88;5042230;28;20876;-79
2021/07/19 03:45:36;;;;;;;9.60;5.80;;;15.70;99.90;;;16.80;100.00;98556.66;5044289;28;20861;-80
2021/07/19 03:48:09;;;;;;;7.73;5.57;;;15.60;99.90;;;16.78;100.00;98557.91;5043793;28;20954;-79
2021/07/19 03:50:39;;;;;;;11.30;5.73;;;15.70;99.90;;;16.77;100.00;98556.28;5048246;28;20452;-79
2021/07/19 03:53:09;;;;;;;11.60;5.93;;;15.60;99.90;;;16.71;100.00;98562.41;5049413;28;20949;-79
2021/07/19 03:55:40;;;;;;;7.13;5.70;;;15.60;99.90;;;16.74;100.00;98561.97;5049894;28;20449;-79
2021/07/19 03:58:12;;;;;;;11.53;5.70;;;15.60;99.90;;;16.71;100.00;98562.41;5044248;28;20553;-80
2021/07/19 04:00:44;;;;;;;11.23;5.30;;;15.60;99.90;;;16.69;100.00;98564.47;5043899;28;20531;-81
2021/07/19 04:03:19;;;;;;;15.50;6.77;;;15.60;99.90;;;16.71;100.00;98557.94;5046482;28;21049;-80
2021/07/19 04:05:57;;;;;;;8.50;5.47;;;15.60;99.90;;;16.70;100.00;98566.88;5046215;28;20836;-79
2021/07/19 04:08:31;;;;;;;11.07;5.40;;;15.60;99.90;;;16.54;100.00;98567.38;5049201;28;20492;-79
2021/07/19 04:11:01;;;;;;;7.80;5.70;;;15.40;99.90;;;16.60;100.00;98561.25;5048572;28;20464;-79
2021/07/19 04:13:32;;;;;;;11.67;5.30;;;15.50;99.90;;;16.60;100.00;98567.34;5037201;28;20537;-79
2021/07/19 04:16:02;;;;;;;11.97;5.70;;;15.60;99.90;;;16.66;100.00;98564.91;5041052;28;20525;-79
2021/07/19 04:18:33;;;;;;;8.40;5.23;;;15.70;99.90;;;16.60;100.00;98570.00;5044373;28;20849;-79
2021/07/19 04:21:03;;;;;;;12.20;5.67;;;15.70;99.90;;;16.58;100.00;98566.78;5040164;28;20481;-83
2021/07/19 04:23:36;;;;;;;13.83;5.83;;;15.70;99.90;;;16.47;100.00;98567.41;5031828;28;20834;-79
2021/07/19 04:26:06;;;;;;;5.37;4.87;;;15.40;99.90;;;16.50;100.00;98566.16;5044042;28;20457;-79
2021/07/19 04:28:36;;;;;;;13.80;6.37;;;15.40;99.90;;;16.37;100.00;98569.69;5042230;28;20505;-79
2021/07/19 04:31:07;;;;;;;6.37;5.30;;;15.20;99.90;;;16.39;100.00;98572.91;5043959;28;20462;-79
2021/07/19 04:33:36;;;;;;;63.30;42.77;;;15.30;99.90;;;16.53;100.00;98568.38;5046280;28;20523;-81
2021/07/19 04:36:05;;;;;;;7.53;5.50;;;15.40;99.90;;;16.45;100.00;98564.16;5044851;28;20481;-79
2021/07/19 04:38:35;;;;;;;9.93;5.43;;;15.40;99.90;;;16.46;100.00;98571.06;5045310;28;20453;-79
2021/07/19 04:41:06;;;;;;;8.03;5.83;;;15.30;99.90;;;16.53;100.00;98569.19;5046165;28;20473;-80
2021/07/19 04:43:37;;;;;;;13.33;5.90;;;15.40;99.90;;;16.60;100.00;98571.81;5043451;28;20469;-79
2021/07/19 04:46:07;;;;;;;19.23;5.73;;;15.60;99.90;;;16.63;100.00;98571.41;5044503;28;20485;-79
2021/07/19 04:48:37;;;;;;;13.07;6.50;;;15.60;99.90;;;16.65;100.00;98568.56;5041193;28;20901;-80
2021/07/19 04:51:06;;;;;;;7.83;6.13;;;15.60;99.90;;;16.68;100.00;98573.41;5040500;28;20909;-79
2021/07/19 04:53:36;;;;;;;7.33;5.27;;;15.60;99.90;;;16.67;100.00;98563.84;5045808;28;20453;-79
2021/07/19 04:56:08;;;;;;;10.83;6.00;;;15.60;99.90;;;16.64;100.00;98570.38;5036050;28;20465;-79
2021/07/19 04:58:38;;;;;;;10.70;5.37;;;15.60;99.90;;;16.63;100.00;98574.03;5041639;28;20963;-79
2021/07/19 05:01:10;;;;;;;11.30;5.50;;;15.60;99.90;;;16.67;100.00;98572.59;5043855;28;20471;-79
2021/07/19 05:03:46;;;;;;;5.80;4.50;;;15.60;99.90;;;16.71;100.00;98573.78;5043582;28;20495;-79
2021/07/19 05:06:16;;;;;;;10.00;5.27;;;15.70;99.90;;;16.76;100.00;98568.69;5040567;28;20503;-79
2021/07/19 05:08:48;;;;;;;8.30;5.50;;;15.70;99.90;;;16.71;100.00;98570.34;5045701;28;20511;-79
2021/07/19 05:11:20;;;;;;;10.43;5.60;;;15.70;99.90;;;16.70;100.00;98574.81;5036348;28;20465;-79
2021/07/19 05:13:50;;;;;;;9.43;6.00;;;15.60;99.90;;;16.71;100.00;98573.78;5045421;28;20544;-79
2021/07/19 05:16:20;;;;;;;7.80;5.97;;;15.60;99.90;;;16.81;100.00;98578.59;5037892;28;20457;-84
2021/07/19 05:18:51;;;;;;;9.70;5.50;;;15.80;99.90;;;16.84;100.00;98572.88;5042332;28;20475;-79
2021/07/19 05:21:20;;;;;;;10.37;4.93;;;15.80;99.90;;;16.93;100.00;98580.34;5045256;28;20457;-79
2021/07/19 05:23:48;;;;;;;9.53;5.20;;;15.90;99.90;;;16.96;100.00;98576.47;5046787;28;20461;-79
2021/07/19 05:26:17;;;;;;;7.40;5.07;;;15.90;99.90;;;16.96;100.00;98587.03;5049376;28;20468;-79
2021/07/19 05:28:48;;;;;;;9.60;4.83;;;15.90;99.90;;;17.00;100.00;98577.66;5053796;28;20829;-78
2021/07/19 05:31:20;;;;;;;12.37;5.40;;;16.00;99.90;;;16.94;100.00;98579.31;5053946;28;20480;-80
2021/07/19 05:33:50;;;;;;;10.83;5.17;;;15.90;99.90;;;16.78;100.00;98582.47;5058451;28;20962;-80
2021/07/19 05:36:20;;;;;;;8.77;6.00;;;15.80;99.90;;;16.76;100.00;98575.81;5047809;28;20469;-79
2021/07/19 05:38:49;;;;;;;10.53;5.33;;;15.80;99.90;;;16.87;100.00;98578.56;5049812;28;20511;-80
2021/07/19 05:41:18;;;;;;;8.90;5.50;;;15.90;99.90;;;17.02;100.00;98584.34;5049554;28;20463;-80
2021/07/19 05:43:46;;;;;;;12.03;5.90;;;16.10;99.90;;;17.04;100.00;98587.56;5048573;28;20449;-80
2021/07/19 05:46:14;;;;;;;13.50;5.87;;;16.10;99.90;;;17.13;100.00;98574.91;5049464;28;20586;-80
2021/07/19 05:48:45;;;;;;;10.33;5.60;;;16.20;99.90;;;17.17;100.00;98575.28;5047243;28;20550;-80
2021/07/19 05:51:14;;;;;;;6.80;5.37;;;16.20;99.90;;;17.24;100.00;98570.75;5049700;28;20449;-80
2021/07/19 05:53:42;;;;;;;16.63;5.23;;;16.20;99.90;;;17.32;100.00;98576.56;5050201;28;20847;-80
2021/07/19 05:56:11;;;;;;;8.57;4.93;;;16.30;99.90;;;17.43;100.00;98572.41;5050578;28;20441;-80
2021/07/19 05:58:40;;;;;;;11.80;4.50;;;16.40;99.90;;;17.50;100.00;98579.25;5049303;28;20483;-80
2021/07/19 06:01:08;;;;;;;17.03;6.20;;;16.50;99.90;;;17.53;100.00;98575.38;5053245;28;20815;-80
2021/07/19 06:03:37;;;;;;;8.80;4.60;;;16.60;99.90;;;17.57;100.00;98572.09;5049952;28;20548;-80
2021/07/19 06:06:08;;;;;;;9.90;4.83;;;16.60;99.90;;;17.66;100.00;98577.13;5048075;28;20450;-80
2021/07/19 06:08:36;;;;;;;8.50;5.80;;;16.70;99.90;;;17.65;100.00;98576.31;5046994;28;21074;-80
2021/07/19 06:11:05;;;;;;;7.27;4.53;;;16.70;99.90;;;17.70;100.00;98578.31;5054529;28;20535;-80
2021/07/19 06:13:34;;;;;;;11.47;4.57;;;16.80;99.90;;;17.79;100.00;98576.97;5049315;28;20935;-80
2021/07/19 06:16:03;;;;;;;7.50;4.70;;;16.80;99.90;;;17.83;100.00;98576.31;5048217;28;20440;-80
2021/07/19 06:18:31;;;;;;;8.40;4.97;;;16.90;99.90;;;17.90;100.00;98576.25;5049127;28;20867;-80
2021/07/19 06:21:00;;;;;;;11.13;4.77;;;17.00;99.90;;;17.97;100.00;98571.69;5047685;28;20951;-80
2021/07/19 06:23:29;;;;;;;7.43;4.97;;;17.00;99.90;;;18.05;100.00;98571.38;5049405;28;20441;-80
2021/07/19 06:25:58;;;;;;;6.73;4.87;;;17.20;99.90;;;18.09;100.00;98572.56;5049771;28;20437;-80
2021/07/19 06:28:27;;;;;;;8.30;5.60;;;17.20;99.90;;;18.14;100.00;98578.00;5048531;28;20514;-80
2021/07/19 06:30:55;;;;;;;7.77;5.13;;;17.30;99.90;;;18.17;100.00;98580.19;5045719;28;20531;-80
2021/07/19 06:33:24;;;;;;;9.70;4.40;;;17.40;99.90;;;18.20;100.00;98571.00;5047916;28;20452;-80
2021/07/19 06:35:52;;;;;;;24.23;8.27;;;17.40;99.90;;;18.25;100.00;98579.09;5046142;28;20787;-80
2021/07/19 06:38:21;;;;;;;80.77;15.80;;;17.40;99.90;;;18.34;100.00;98569.81;5047474;28;20441;-80
2021/07/19 06:40:51;;;;;;;99.60;21.47;;;17.50;99.90;;;18.39;100.00;98570.78;5047148;28;20450;-80
2021/07/19 06:43:19;;;;;;;52.10;11.70;;;17.60;99.90;;;18.47;100.00;98577.56;5049006;28;20445;-80
2021/07/19 06:45:48;;;;;;;7.70;4.50;;;17.60;99.90;;;18.53;100.00;98576.72;5048598;28;20554;-80
2021/07/19 06:48:17;;;;;;;10.30;5.80;;;17.70;99.90;;;18.60;100.00;98580.88;5049852;28;20533;-80
2021/07/19 06:50:46;;;;;;;10.50;5.10;;;17.80;99.90;;;18.68;100.00;98568.34;5048066;28;20497;-80
2021/07/19 06:53:14;;;;;;;8.73;4.67;;;17.90;99.90;;;18.75;100.00;98574.34;5047948;28;20863;-80
2021/07/19 06:55:43;;;;;;;10.30;4.83;;;17.90;99.90;;;18.81;100.00;98570.81;5050790;28;20453;-81
2021/07/19 06:58:13;;;;;;;13.97;4.30;;;18.00;99.90;;;18.87;100.00;98576.03;5052557;28;20438;-80
2021/07/19 07:00:41;;;;;;;9.60;4.17;;;18.10;99.90;;;18.93;100.00;98569.00;5054321;28;20506;-80
2021/07/19 07:03:10;;;;;;;8.13;4.87;;;18.20;99.90;;;18.99;100.00;98568.06;5045291;28;21094;-81
2021/07/19 07:05:39;;;;;;;6.57;4.47;;;18.20;99.90;;;19.03;100.00;98559.44;5051953;28;20823;-80
2021/07/19 07:08:08;;;;;;;10.00;4.50;;;18.30;99.90;;;19.09;100.00;98563.84;5052861;28;20465;-80
2021/07/19 07:10:36;;;;;;;11.13;5.33;;;18.40;99.90;;;19.10;100.00;98554.84;5048033;28;20868;-80
2021/07/19 07:13:09;;;;;;;5.60;3.83;;;18.40;99.90;;;19.15;100.00;98551.53;5052855;28;20452;-81
2021/07/19 07:15:40;;;;;;;9.40;4.80;;;18.40;99.90;;;19.21;100.00;98550.59;5050573;28;20998;-80
2021/07/19 07:18:10;;;;;;;6.93;4.10;;;18.50;99.90;;;19.28;100.00;98548.63;5052183;28;20449;-81
2021/07/19 07:20:40;;;;;;;8.50;4.30;;;18.50;99.90;;;19.34;100.00;98545.06;5049850;28;20487;-80
2021/07/19 07:23:09;;;;;;;18.47;4.90;;;18.60;99.90;;;19.41;100.00;98544.97;5052368;28;20499;-81
2021/07/19 07:25:37;;;;;;;8.13;3.70;;;18.70;99.90;;;19.47;100.00;98544.06;5051870;28;20444;-80
2021/07/19 07:28:06;;;;;;;8.70;4.10;;;18.70;99.90;;;19.51;100.00;98550.50;5049086;28;20460;-80
2021/07/19 07:30:34;;;;;;;14.43;4.60;;;18.80;99.90;;;19.55;100.00;98554.31;5052240;28;20500;-81
2021/07/19 07:33:05;;;;;;;10.23;4.30;;;18.80;99.90;;;19.62;100.00;98554.19;5049929;28;20443;-81
2021/07/19 07:35:40;;;;;;;14.73;3.40;;;18.90;99.90;;;19.67;100.00;98554.31;5051660;28;20538;-81
2021/07/19 07:38:08;;;;;;;4.83;3.10;;;19.00;99.90;;;19.70;100.00;98549.34;5048803;28;20510;-81
2021/07/19 07:40:37;;;;;;;11.07;3.90;;;19.00;99.90;;;19.74;100.00;98549.69;5051763;28;20457;-81
2021/07/19 07:43:05;;;;;;;6.37;3.80;;;19.10;99.90;;;19.79;100.00;98541.81;5049980;28;20491;-81
2021/07/19 07:45:34;;;;;;;5.43;3.33;;;19.10;99.90;;;19.81;100.00;98539.75;5048101;28;20445;-80
2021/07/19 07:48:05;;;;;;;7.00;3.37;;;19.10;99.90;;;19.85;100.00;98535.59;5046994;28;20441;-81
2021/07/19 07:50:34;;;;;;;7.80;4.30;;;19.10;99.90;;;19.88;100.00;98545.75;5050884;28;20501;-80
2021/07/19 07:53:02;;;;;;;6.97;3.00;;;19.10;99.90;;;19.92;100.00;98544.25;5050828;28;20438;-80
2021/07/19 07:55:31;;;;;;;4.10;2.50;;;19.20;99.90;;;19.93;100.00;98551.13;5051338;28;20510;-81
2021/07/19 07:58:01;;;;;;;6.00;3.50;;;19.20;99.90;;;19.98;100.00;98553.91;5050362;28;20446;-81
2021/07/19 08:00:29;;;;;;;5.80;3.00;;;19.20;99.90;;;20.03;100.00;98546.03;5048089;28;20830;-81
2021/07/19 08:02:58;;;;;;;8.10;3.40;;;19.30;99.90;;;20.08;100.00;98551.47;5045855;28;20460;-81
2021/07/19 08:05:28;;;;;;;8.10;2.80;;;19.30;99.90;;;20.14;100.00;98550.50;5050290;28;20951;-81
2021/07/19 08:07:57;;;;;;;3.40;2.60;;;19.40;99.90;;;20.16;100.00;98548.44;5051031;28;21040;-81
2021/07/19 08:10:25;;;;;;;5.47;3.17;;;19.40;99.90;;;20.22;100.00;98547.50;5049464;28;20504;-81
2021/07/19 08:12:55;;;;;;;10.80;3.50;;;19.50;99.90;;;20.26;100.00;98551.28;5045813;28;20527;-82
2021/07/19 08:15:24;;;;;;;7.43;3.20;;;19.60;99.90;;;20.32;100.00;98546.91;5050461;28;20823;-80
2021/07/19 08:17:52;;;;;;;5.70;2.83;;;19.60;99.90;;;20.34;100.00;98545.63;5050730;28;21572;-80
2021/07/19 08:20:21;;;;;;;8.57;3.53;;;19.60;99.90;;;20.33;100.00;98549.34;5045758;28;20453;-81
2021/07/19 08:22:51;;;;;;;5.93;3.27;;;19.70;99.90;;;20.38;100.00;98544.09;5050116;28;20515;-81
2021/07/19 08:25:21;;;;;;;11.40;2.70;;;19.60;99.90;;;20.45;100.00;98546.63;5046205;28;20797;-81
2021/07/19 08:27:50;;;;;;;7.67;3.20;;;19.70;99.90;;;20.52;100.00;98541.97;5049286;28;20993;-81
2021/07/19 08:30:19;;;;;;;9.70;3.80;;;19.80;99.90;;;20.61;100.00;98539.75;5050519;28;20501;-81
2021/07/19 08:32:48;;;;;;;3.80;2.80;;;19.90;99.90;;;20.65;100.00;98535.56;5050454;28;20437;-81
2021/07/19 08:35:16;;;;;;;8.30;3.07;;;19.90;99.90;;;20.68;100.00;98530.56;5053953;28;20526;-81
2021/07/19 08:37:47;;;;;;;7.73;4.13;;;19.90;99.90;;;20.72;100.00;98530.91;5047174;28;20460;-81
2021/07/19 08:40:20;;;;;;;8.47;4.27;;;20.00;99.90;;;20.76;100.00;98535.47;5055072;28;20436;-81
2021/07/19 08:42:49;;;;;;;7.43;3.17;;;20.10;99.90;;;20.75;100.00;98541.84;5048407;28;20445;-81
2021/07/19 08:45:18;;;;;;;9.70;3.50;;;20.10;99.90;;;20.70;100.00;98531.13;5049964;28;20452;-81
2021/07/19 08:47:49;;;;;;;6.93;3.00;;;20.00;99.90;;;20.68;100.00;98537.72;5048075;28;21009;-80
2021/07/19 08:50:21;;;;;;;6.30;2.77;;;20.00;99.90;;;20.74;100.00;98534.91;5049837;28;20477;-81
2021/07/19 08:52:53;;;;;;;10.40;3.00;;;20.00;99.90;;;20.78;100.00;98532.59;5046094;28;20511;-81
2021/07/19 08:55:24;;;;;;;5.40;2.70;;;20.00;99.90;;;20.80;100.00;98533.94;5048785;28;20480;-81
2021/07/19 08:57:53;;;;;;;8.10;2.83;;;20.00;99.90;;;20.82;100.00;98539.03;5050928;28;20966;-81
2021/07/19 09:00:23;;;;;;;7.13;3.73;;;20.10;99.90;;;20.88;100.00;98538.06;5049927;28;20449;-80
2021/07/19 09:02:55;;;;;;;6.33;2.77;;;20.20;99.90;;;20.74;100.00;98534.09;5045552;28;20459;-81
2021/07/19 09:05:26;;;;;;;4.13;3.63;;;20.00;99.90;;;20.76;100.00;98524.84;5047991;28;20605;-81
2021/07/19 09:07:56;;;;;;;5.87;2.93;;;20.00;99.90;;;20.82;100.00;98531.06;5047954;28;20441;-81
2021/07/19 09:10:28;;;;;;;5.60;3.50;;;20.00;99.90;;;20.86;100.00;98529.53;5048819;28;20562;-81
2021/07/19 09:13:00;;;;;;;11.90;3.47;;;20.10;99.90;;;20.86;100.00;98522.34;5049586;28;20931;-82
2021/07/19 09:15:32;;;;;;;3.97;3.30;;;20.20;99.90;;;20.89;100.00;98516.56;5048481;28;20520;-81
2021/07/19 09:18:04;;;;;;;5.93;3.03;;;20.20;99.90;;;20.95;100.00;98522.78;5049089;28;20461;-82
2021/07/19 09:20:36;;;;;;;5.53;3.10;;;20.20;99.90;;;21.05;100.00;98525.59;5044759;28;20514;-81
2021/07/19 09:23:07;;;;;;;14.73;3.83;;;20.30;99.90;;;21.12;100.00;98514.81;5046863;28;20437;-81
2021/07/19 09:25:37;;;;;;;7.57;3.60;;;20.40;99.90;;;21.20;100.00;98514.41;5049494;28;20887;-81
2021/07/19 09:28:11;;;;;;;8.10;3.70;;;20.50;99.90;;;21.23;100.00;98517.38;5046036;28;20495;-81
2021/07/19 09:30:43;;;;;;;6.30;3.27;;;20.50;99.90;;;21.24;100.00;98516.31;5049029;28;20542;-81
2021/07/19 09:33:15;;;;;;;6.87;3.13;;;20.60;99.90;;;21.17;100.00;98506.91;5049022;28;20536;-81
2021/07/19 09:35:52;;;;;;;10.70;3.50;;;20.50;99.90;;;21.15;100.00;98509.81;5048095;28;20453;-81
2021/07/19 09:38:21;;;;;;;14.03;3.70;;;20.40;99.90;;;21.19;100.00;98505.63;5044103;28;20445;-80
2021/07/19 09:41:02;;;;;;;4.13;2.87;;;20.40;99.90;;;21.23;100.00;98504.09;5048286;28;20441;-81
2021/07/19 09:43:33;;;;;;;6.70;3.40;;;20.40;99.90;;;21.28;100.00;98506.00;5055052;28;20444;-80
2021/07/19 09:46:05;;;;;;;7.23;3.27;;;20.50;99.90;;;21.34;100.00;98507.69;5048365;28;20511;-81
2021/07/19 09:48:35;;;;;;;4.23;2.80;;;20.60;99.90;;;21.40;100.00;98496.06;5042827;28;20453;-81
2021/07/19 09:51:06;;;;;;;7.33;3.03;;;20.70;99.90;;;21.46;100.00;98490.56;5048783;28;20612;-81
2021/07/19 09:53:37;;;;;;;7.20;3.20;;;20.80;99.90;;;21.52;100.00;98492.25;5053436;28;20499;-81
2021/07/19 09:56:19;;;;;;;11.10;3.33;;;20.90;99.90;;;21.51;100.00;98489.84;5049205;28;20484;-81
2021/07/19 09:58:49;;;;;;;12.20;3.60;;;20.80;99.90;;;21.49;100.00;98494.59;5047029;28;20449;-81
2021/07/19 10:01:29;;;;;;;7.20;3.10;;;20.80;99.90;;;21.42;100.00;98489.44;5044438;28;20921;-81
2021/07/19 10:04:06;;;;;;;5.80;3.23;;;20.70;99.90;;;21.43;100.00;98493.72;5050395;28;20469;-81
2021/07/19 10:06:37;;;;;;;7.90;4.70;;;20.70;99.90;;;21.46;100.00;98490.56;5048874;28;20441;-81
2021/07/19 10:09:09;;;;;;;9.00;3.60;;;20.80;99.90;;;21.52;100.00;98494.91;5048313;28;20442;-81
2021/07/19 10:11:42;;;;;;;5.50;3.67;;;20.80;99.90;;;21.58;100.00;98499.25;5045143;28;21012;-81
2021/07/19 10:14:11;;;;;;;6.33;3.90;;;20.80;99.90;;;21.65;100.00;98498.28;5048514;28;20494;-81
2021/07/19 10:16:40;;;;;;;9.83;3.73;;;20.90;99.90;;;21.67;100.00;98496.16;5043720;28;20445;-81
2021/07/19 10:19:11;;;;;;;10.73;3.90;;;21.00;99.90;;;21.71;100.00;98479.44;5048099;28;20442;-81
2021/07/19 10:21:39;;;;;;;5.70;3.70;;;20.90;99.90;;;21.77;100.00;98493.63;5048338;28;20947;-81
2021/07/19 10:24:10;;;;;;;8.97;3.63;;;21.00;99.90;;;21.77;100.00;98496.28;5048509;28;20433;-81
2021/07/19 10:26:40;;;;;;;11.40;4.13;;;21.10;99.90;;;21.77;100.00;98486.44;5046587;28;20471;-81